createdAt,value
2024-04-17T00:01:38.933Z,0.70
2024-04-17T00:04:40.968Z,0.70
2024-04-17T00:07:42.937Z,0.60
2024-04-17T00:10:44.969Z,0.70
2024-04-17T00:13:46.972Z,0.77
2024-04-17T00:16:51.672Z,0.73
2024-04-17T00:19:53.997Z,0.70
2024-04-17T00:22:55.983Z,1.02
2024-04-17T00:25:57.969Z,1.10
2024-04-17T00:29:00.060Z,1.00
2024-04-17T00:32:05.459Z,0.70
2024-04-17T00:35:07.473Z,0.70
2024-04-17T00:38:09.396Z,0.73
2024-04-17T00:41:12.914Z,0.73
2024-04-17T00:44:15.054Z,0.70
2024-04-17T00:47:19.621Z,0.80
2024-04-17T00:50:21.745Z,0.68
2024-04-17T00:53:26.142Z,0.65
2024-04-17T00:56:28.631Z,0.60
2024-04-17T00:59:30.850Z,0.70
2024-04-17T01:02:35.355Z,0.70
2024-04-17T01:05:37.923Z,1.05
2024-04-17T01:08:40.056Z,0.70
2024-04-17T01:11:42.668Z,0.65
2024-04-17T01:14:44.603Z,1.00
2024-04-17T01:17:49.739Z,1.10
2024-04-17T01:20:51.683Z,1.13
2024-04-17T01:23:56.356Z,1.20
2024-04-17T01:26:58.318Z,1.40
2024-04-17T01:30:00.362Z,1.20
2024-04-17T01:33:02.425Z,1.38
2024-04-17T01:36:05.173Z,1.00
2024-04-17T01:39:09.676Z,1.00
2024-04-17T01:42:11.683Z,0.85
2024-04-17T01:45:13.622Z,0.68
2024-04-17T01:48:15.536Z,1.10
2024-04-17T01:51:17.477Z,1.20
2024-04-17T01:54:23.060Z,1.55
2024-04-17T01:57:25.213Z,1.30
2024-04-17T02:00:27.182Z,1.20
2024-04-17T02:03:29.110Z,1.50
2024-04-17T02:06:31.057Z,1.50
2024-04-17T02:09:35.794Z,1.40
2024-04-17T02:12:37.751Z,1.65
2024-04-17T02:15:39.653Z,1.80
2024-04-17T02:18:41.603Z,1.88
2024-04-17T02:21:43.513Z,2.20
2024-04-17T02:24:48.084Z,2.05
2024-04-17T02:27:50.005Z,1.98
2024-04-17T02:30:51.969Z,1.80
2024-04-17T02:33:54.002Z,1.42
2024-04-17T02:36:55.951Z,1.90
2024-04-17T02:40:00.505Z,1.98
2024-04-17T02:43:02.798Z,2.20
2024-04-17T02:46:05.057Z,2.15
2024-04-17T02:49:06.944Z,2.15
2024-04-17T02:52:08.889Z,2.47
2024-04-17T02:55:13.551Z,2.80
2024-04-17T02:58:15.499Z,2.85
2024-04-17T03:01:18.174Z,2.95
2024-04-17T03:04:20.333Z,2.80
2024-04-17T03:07:22.462Z,3.13
2024-04-17T03:10:27.044Z,2.95
2024-04-17T03:13:29.414Z,3.50
2024-04-17T03:16:31.438Z,3.67
2024-04-17T03:19:33.369Z,3.50
2024-04-17T03:22:35.481Z,3.47
2024-04-17T03:25:40.190Z,3.80
2024-04-17T03:28:42.354Z,3.85
2024-04-17T03:31:44.327Z,3.25
2024-04-17T03:34:47.809Z,2.80
2024-04-17T03:37:49.842Z,2.63
2024-04-17T03:40:54.923Z,2.40
2024-04-17T03:43:57.071Z,2.53
2024-04-17T03:46:59.277Z,2.80
2024-04-17T03:50:04.594Z,2.30
2024-04-17T03:53:06.523Z,2.38
2024-04-17T03:56:11.095Z,1.88
2024-04-17T03:59:13.093Z,1.73
2024-04-17T04:02:15.077Z,1.80
2024-04-17T04:05:17.168Z,1.90
2024-04-17T04:08:19.233Z,2.10
2024-04-17T04:11:23.753Z,1.90
2024-04-17T04:14:25.680Z,1.80
2024-04-17T04:17:27.668Z,2.30
2024-04-17T04:20:29.736Z,2.35
2024-04-17T04:23:31.689Z,2.05
2024-04-17T04:26:36.279Z,2.33
2024-04-17T04:29:38.371Z,2.00
2024-04-17T04:32:40.341Z,2.00
2024-04-17T04:35:42.359Z,1.98
2024-04-17T04:38:44.353Z,1.70
2024-04-17T04:41:48.945Z,1.95
2024-04-17T04:44:50.970Z,2.22
2024-04-17T04:47:53.118Z,2.05
2024-04-17T04:50:55.103Z,2.20
2024-04-17T04:53:57.042Z,2.20
2024-04-17T04:57:01.555Z,2.60
2024-04-17T05:00:04.079Z,2.20
2024-04-17T05:03:06.308Z,2.20
2024-04-17T05:06:08.243Z,2.08
2024-04-17T05:09:10.209Z,2.13
2024-04-17T05:12:14.844Z,2.10
2024-04-17T05:15:17.367Z,2.45
2024-04-17T05:18:19.453Z,2.00
2024-04-17T05:21:21.515Z,1.23
2024-04-17T05:24:25.400Z,0.80
2024-04-17T05:27:31.183Z,0.68
2024-04-17T05:30:33.160Z,0.70
2024-04-17T05:33:35.211Z,0.80
2024-04-17T05:36:37.241Z,0.80
2024-04-17T05:39:39.324Z,0.90
2024-04-17T05:42:43.889Z,0.85
2024-04-17T05:45:45.966Z,1.38
2024-04-17T05:48:47.886Z,1.33
2024-04-17T05:51:50.162Z,1.33
2024-04-17T05:54:52.070Z,1.90
2024-04-17T05:57:56.614Z,2.20
2024-04-17T06:00:58.760Z,1.88
2024-04-17T06:04:00.875Z,2.10
2024-04-17T06:07:02.831Z,2.53
2024-04-17T06:10:05.730Z,2.20
2024-04-17T06:13:10.365Z,2.40
2024-04-17T06:16:12.420Z,2.10
2024-04-17T06:19:14.403Z,3.00
2024-04-17T06:22:16.576Z,2.42
2024-04-17T06:25:18.582Z,2.97
2024-04-17T06:28:23.182Z,5.68
2024-04-17T06:31:25.226Z,3.47
2024-04-17T06:34:27.302Z,2.85
2024-04-17T06:37:29.391Z,3.72
2024-04-17T06:40:31.311Z,3.33
2024-04-17T06:43:35.842Z,4.10
2024-04-17T06:46:37.874Z,4.05
2024-04-17T06:49:40.202Z,3.60
2024-04-17T06:52:42.292Z,3.75
2024-04-17T06:55:44.310Z,4.47
2024-04-17T06:58:49.061Z,5.38
2024-04-17T07:01:51.117Z,3.95
2024-04-17T07:04:53.196Z,3.90
2024-04-17T07:07:55.295Z,4.90
2024-04-17T07:10:57.307Z,6.07
2024-04-17T07:14:01.966Z,6.57
2024-04-17T07:17:04.066Z,5.00
2024-04-17T07:20:07.421Z,5.55
2024-04-17T07:23:09.354Z,5.25
2024-04-17T07:26:11.379Z,5.38
2024-04-17T07:29:15.919Z,5.35
2024-04-17T07:32:17.917Z,5.82
2024-04-17T07:35:19.917Z,5.30
2024-04-17T07:38:21.883Z,5.72
2024-04-17T07:41:23.799Z,5.70
2024-04-17T07:44:28.422Z,5.68
2024-04-17T07:47:30.394Z,5.72
2024-04-17T07:50:32.585Z,5.53
2024-04-17T07:53:35.283Z,6.15
2024-04-17T07:56:37.527Z,5.88
2024-04-17T07:59:42.277Z,6.05
2024-04-17T08:02:44.258Z,5.97
2024-04-17T08:05:46.231Z,5.80
2024-04-17T08:08:48.245Z,5.72
2024-04-17T08:11:50.313Z,6.40
2024-04-17T08:14:54.860Z,6.60
2024-04-17T08:17:56.885Z,6.20
2024-04-17T08:20:59.232Z,6.82
2024-04-17T08:24:01.122Z,6.70
2024-04-17T08:27:03.060Z,6.53
2024-04-17T08:30:08.688Z,7.03
2024-04-17T08:33:10.773Z,7.70
2024-04-17T08:36:12.908Z,7.22
2024-04-17T08:39:14.993Z,7.65
2024-04-17T08:42:23.365Z,6.40
2024-04-17T08:45:43.940Z,6.13
2024-04-17T08:48:52.980Z,4.85
2024-04-17T08:51:55.863Z,5.00
2024-04-17T08:54:59.537Z,4.63
2024-04-17T08:58:01.971Z,4.25
2024-04-17T09:01:08.105Z,4.15
2024-04-17T09:04:11.892Z,4.32
2024-04-17T09:07:14.180Z,4.75
2024-04-17T09:10:17.300Z,4.65
2024-04-17T09:13:19.747Z,4.68
2024-04-17T09:16:24.434Z,5.20
2024-04-17T09:19:26.425Z,5.18
2024-04-17T09:22:28.714Z,5.13
2024-04-17T09:25:30.834Z,5.25
2024-04-17T09:28:33.988Z,5.70
2024-04-17T09:31:38.605Z,5.35
2024-04-17T09:34:40.540Z,5.53
2024-04-17T09:37:42.468Z,5.43
2024-04-17T09:40:45.124Z,4.65
2024-04-17T09:43:48.412Z,5.10
2024-04-17T09:46:59.297Z,5.07
2024-04-17T09:50:04.336Z,5.30
2024-04-17T09:53:11.521Z,4.90
2024-04-17T09:56:19.071Z,5.38
2024-04-17T09:59:22.487Z,5.13
2024-04-17T10:02:29.249Z,5.30
2024-04-17T10:05:32.565Z,5.13
2024-04-17T10:08:37.001Z,4.95
2024-04-17T10:11:40.193Z,4.43
2024-04-17T10:14:42.292Z,5.45
2024-04-17T10:17:47.113Z,5.13
2024-04-17T10:20:49.243Z,4.78
2024-04-17T10:24:01.009Z,4.50
2024-04-17T10:27:05.706Z,4.70
2024-04-17T10:30:10.852Z,4.50
2024-04-17T10:33:29.892Z,5.10
2024-04-17T10:36:34.366Z,4.90
2024-04-17T10:39:45.976Z,5.35
2024-04-17T10:42:48.155Z,5.07
2024-04-17T10:45:56.818Z,5.03
2024-04-17T10:49:01.415Z,3.85
2024-04-17T10:52:05.056Z,5.32
2024-04-17T10:55:08.928Z,5.28
2024-04-17T10:58:13.257Z,5.28
2024-04-17T11:01:15.327Z,4.85
2024-04-17T11:04:20.143Z,4.75
2024-04-17T11:07:22.541Z,4.32
2024-04-17T11:10:24.672Z,4.70
2024-04-17T11:13:26.652Z,5.50
2024-04-17T11:16:28.693Z,5.30
2024-04-17T11:19:33.452Z,5.28
2024-04-17T11:22:36.407Z,5.70
2024-04-17T11:25:39.316Z,5.28
2024-04-17T11:28:41.913Z,4.80
2024-04-17T11:31:44.728Z,4.80
2024-04-17T11:34:49.395Z,5.90
2024-04-17T11:37:51.784Z,5.63
2024-04-17T11:40:53.784Z,5.38
2024-04-17T11:43:55.819Z,5.13
2024-04-17T11:46:58.121Z,5.15
2024-04-17T11:50:02.937Z,5.15
2024-04-17T11:53:05.331Z,5.97
2024-04-17T11:56:08.064Z,6.70
2024-04-17T11:59:10.415Z,5.60
2024-04-17T12:02:12.533Z,4.80
2024-04-17T12:05:17.306Z,4.40
2024-04-17T12:08:19.254Z,5.25
2024-04-17T12:11:21.320Z,3.95
2024-04-17T12:14:23.366Z,3.42
2024-04-17T12:17:25.366Z,2.72
2024-04-17T12:20:30.126Z,2.92
2024-04-17T12:23:32.371Z,3.10
2024-04-17T12:26:34.431Z,3.58
2024-04-17T12:29:44.979Z,3.80
2024-04-17T12:32:47.082Z,3.72
2024-04-17T12:35:51.970Z,4.50
2024-04-17T12:38:53.996Z,4.65
2024-04-17T12:41:55.944Z,4.88
2024-04-17T12:44:58.048Z,5.43
2024-04-17T12:48:00.389Z,5.68
2024-04-17T12:51:05.406Z,5.60
2024-04-17T12:54:07.290Z,5.25
2024-04-17T12:57:09.314Z,5.47
2024-04-17T13:00:12.337Z,5.43
2024-04-17T13:03:14.650Z,5.68
2024-04-17T13:06:23.984Z,5.53
2024-04-17T13:09:26.629Z,5.65
2024-04-17T13:12:28.667Z,6.07
2024-04-17T13:15:30.715Z,4.70
2024-04-17T13:18:32.916Z,4.20
2024-04-17T13:21:37.663Z,3.63
2024-04-17T13:24:39.793Z,3.15
2024-04-17T13:27:41.714Z,2.20
2024-04-17T13:30:43.761Z,2.47
2024-04-17T13:33:45.698Z,1.80
2024-04-17T13:36:50.856Z,2.08
2024-04-17T13:39:52.924Z,2.60
2024-04-17T13:42:54.909Z,3.05
2024-04-17T13:45:57.358Z,3.20
2024-04-17T13:48:59.406Z,3.25
2024-04-17T13:52:04.378Z,3.00
2024-04-17T13:55:06.889Z,3.38
2024-04-17T13:58:08.867Z,3.80
2024-04-17T14:01:10.841Z,3.67
2024-04-17T14:04:12.770Z,3.80
2024-04-17T14:07:17.376Z,3.92
2024-04-17T14:10:19.675Z,3.72
2024-04-17T14:13:21.676Z,2.78
2024-04-17T14:16:23.564Z,3.40
2024-04-17T14:19:25.466Z,3.00
2024-04-17T14:22:30.067Z,3.00
2024-04-17T14:25:32.252Z,3.30
2024-04-17T14:28:34.175Z,3.78
2024-04-17T14:31:36.188Z,4.85
2024-04-17T14:34:38.485Z,4.05
2024-04-17T14:37:43.101Z,3.75
2024-04-17T14:40:53.366Z,4.45
2024-04-17T14:43:55.278Z,4.28
2024-04-17T14:46:57.178Z,4.45
2024-04-17T14:49:59.094Z,3.88
2024-04-17T14:53:03.928Z,1.50
2024-04-17T14:56:07.920Z,2.20
2024-04-17T14:59:10.030Z,1.70
2024-04-17T15:02:12.068Z,1.88
2024-04-17T15:05:14.183Z,1.85
2024-04-17T15:08:19.133Z,2.03
2024-04-17T15:11:21.074Z,1.70
2024-04-17T15:14:23.203Z,1.92
2024-04-17T15:17:25.119Z,2.42
2024-04-17T15:20:30.088Z,2.20
2024-04-17T15:23:34.836Z,2.13
2024-04-17T15:26:36.898Z,1.90
2024-04-17T15:29:38.819Z,2.20
2024-04-17T15:32:41.042Z,2.28
2024-04-17T15:35:48.122Z,2.33
2024-04-17T15:38:52.968Z,2.58
2024-04-17T15:41:54.867Z,2.33
2024-04-17T15:44:56.886Z,2.85
2024-04-17T15:47:58.852Z,2.75
2024-04-17T15:51:06.671Z,3.30
2024-04-17T15:54:11.234Z,3.47
2024-04-17T15:57:13.222Z,3.78
2024-04-17T16:00:16.755Z,2.75
2024-04-17T16:03:19.013Z,2.95
2024-04-17T16:06:21.473Z,3.50
2024-04-17T16:09:26.162Z,3.38
2024-04-17T16:12:28.296Z,3.38
2024-04-17T16:15:30.370Z,4.13
2024-04-17T16:18:33.438Z,3.92
2024-04-17T16:21:35.562Z,3.72
2024-04-17T16:24:40.357Z,3.95
2024-04-17T16:27:42.460Z,4.25
2024-04-17T16:30:44.627Z,4.15
2024-04-17T16:33:47.738Z,4.28
2024-04-17T16:36:49.814Z,5.00
2024-04-17T16:39:54.457Z,5.75
2024-04-17T16:42:56.469Z,5.15
2024-04-17T16:46:05.447Z,4.95
2024-04-17T16:49:07.527Z,4.53
2024-04-17T16:52:09.535Z,4.72
2024-04-17T16:55:14.344Z,5.10
2024-04-17T16:58:16.428Z,4.30
2024-04-17T17:01:18.431Z,4.55
2024-04-17T17:04:20.537Z,4.15
2024-04-17T17:07:22.626Z,4.88
2024-04-17T17:10:27.210Z,4.45
2024-04-17T17:13:29.190Z,4.43
2024-04-17T17:16:31.123Z,4.60
2024-04-17T17:19:33.145Z,4.63
2024-04-17T17:22:35.141Z,4.03
2024-04-17T17:25:39.978Z,3.08
2024-04-17T17:28:42.237Z,3.10
2024-04-17T17:31:44.274Z,3.20
2024-04-17T17:34:46.448Z,3.42
2024-04-17T17:37:49.986Z,3.92
2024-04-17T17:41:02.485Z,3.80
2024-04-17T17:44:04.586Z,4.07
2024-04-17T17:47:06.798Z,4.13
2024-04-17T17:50:09.052Z,4.35
2024-04-17T17:53:10.986Z,5.38
2024-04-17T17:56:16.326Z,5.60
2024-04-17T17:59:18.339Z,6.18
2024-04-17T18:02:20.338Z,9.82
2024-04-17T18:05:22.392Z,6.47
2024-04-17T18:08:24.382Z,5.03
2024-04-17T18:11:29.280Z,4.70
2024-04-17T18:14:31.254Z,4.10
2024-04-17T18:17:33.259Z,3.88
2024-04-17T18:20:35.277Z,4.10
2024-04-17T18:23:38.522Z,3.35
2024-04-17T18:26:43.176Z,3.70
2024-04-17T18:29:45.249Z,3.42
2024-04-17T18:32:47.496Z,2.95
2024-04-17T18:35:54.231Z,3.13
2024-04-17T18:38:56.293Z,2.50
2024-04-17T18:42:00.902Z,3.40
2024-04-17T18:45:03.232Z,3.25
2024-04-17T18:48:05.620Z,2.92
2024-04-17T18:51:07.719Z,2.17
2024-04-17T18:54:10.108Z,2.10
2024-04-17T18:57:14.689Z,2.50
2024-04-17T19:00:17.373Z,2.40
2024-04-17T19:03:19.495Z,2.33
2024-04-17T19:06:21.835Z,2.50
2024-04-17T19:09:24.136Z,2.60
2024-04-17T19:12:28.989Z,2.38
2024-04-17T19:15:32.001Z,2.45
2024-04-17T19:18:34.080Z,2.67
2024-04-17T19:21:36.163Z,4.07
2024-04-17T19:24:38.272Z,4.03
2024-04-17T19:27:42.911Z,1.27
2024-04-17T19:30:55.352Z,0.65
2024-04-17T19:33:57.680Z,0.50
2024-04-17T19:36:59.925Z,0.63
2024-04-17T19:40:02.090Z,0.35
2024-04-17T19:43:06.824Z,1.17
2024-04-17T19:46:10.310Z,0.77
2024-04-17T19:49:12.440Z,0.70
2024-04-17T19:52:14.967Z,0.75
2024-04-17T19:55:17.226Z,1.05
2024-04-17T19:58:22.230Z,0.80
2024-04-17T20:01:24.432Z,0.60
2024-04-17T20:04:27.973Z,0.60
2024-04-17T20:07:30.802Z,0.45
2024-04-17T20:10:36.674Z,0.40
2024-04-17T20:13:41.546Z,0.50
2024-04-17T20:16:43.489Z,0.70
2024-04-17T20:19:45.470Z,0.50
2024-04-17T20:22:47.467Z,0.60
2024-04-17T20:25:59.902Z,0.50
2024-04-17T20:29:07.723Z,0.50
2024-04-17T20:32:10.548Z,0.50
2024-04-17T20:35:12.574Z,0.88
2024-04-17T20:38:14.536Z,0.85
2024-04-17T20:41:16.550Z,0.88
2024-04-17T20:44:21.104Z,1.08
2024-04-17T20:47:23.184Z,1.02
2024-04-17T20:50:25.162Z,0.95
2024-04-17T20:53:27.132Z,0.93
2024-04-17T20:56:29.138Z,0.82
2024-04-17T20:59:33.746Z,1.02
2024-04-17T21:02:35.867Z,1.00
2024-04-17T21:05:37.910Z,0.73
2024-04-17T21:08:41.146Z,1.02
2024-04-17T21:11:43.056Z,1.02
2024-04-17T21:14:48.639Z,1.10
2024-04-17T21:17:50.694Z,0.85
2024-04-17T21:20:55.219Z,0.93
2024-04-17T21:23:57.529Z,0.80
2024-04-17T21:26:59.440Z,0.90
2024-04-17T21:30:04.551Z,0.93
2024-04-17T21:33:06.534Z,1.10
2024-04-17T21:36:08.896Z,1.10
2024-04-17T21:39:10.916Z,1.10
2024-04-17T21:42:12.824Z,1.15
2024-04-17T21:45:17.493Z,1.00
2024-04-17T21:48:19.593Z,1.10
2024-04-17T21:51:21.748Z,1.13
2024-04-17T21:54:23.736Z,1.23
2024-04-17T21:57:25.739Z,1.30
2024-04-17T22:00:30.472Z,1.38
2024-04-17T22:03:33.005Z,1.45
2024-04-17T22:06:35.024Z,1.50
2024-04-17T22:09:36.981Z,1.40
2024-04-17T22:12:39.643Z,1.45
2024-04-17T22:15:44.428Z,1.60
2024-04-17T22:18:46.494Z,1.80
2024-04-17T22:21:48.495Z,1.90
2024-04-17T22:24:50.447Z,1.90
2024-04-17T22:27:52.400Z,1.92
2024-04-17T22:30:57.002Z,2.00
2024-04-17T22:33:59.205Z,2.03
2024-04-17T22:37:01.138Z,2.00
2024-04-17T22:40:03.341Z,2.13
2024-04-17T22:43:05.191Z,2.00
2024-04-17T22:46:09.820Z,1.85
2024-04-17T22:49:11.758Z,1.85
2024-04-17T22:52:13.738Z,2.00
2024-04-17T22:55:15.811Z,2.83
2024-04-17T22:58:17.790Z,2.92
2024-04-17T23:01:22.315Z,3.67
2024-04-17T23:04:24.390Z,2.17
2024-04-17T23:07:26.552Z,2.10
2024-04-17T23:10:28.560Z,1.90
2024-04-17T23:13:30.616Z,1.67
2024-04-17T23:16:35.216Z,1.50
2024-04-17T23:19:37.168Z,1.58
2024-04-17T23:22:39.129Z,1.90
2024-04-17T23:25:41.186Z,2.10
2024-04-17T23:28:43.168Z,1.77
2024-04-17T23:31:47.780Z,1.90
2024-04-17T23:34:49.787Z,1.80
2024-04-17T23:37:51.748Z,2.13
2024-04-17T23:40:59.179Z,1.98
2024-04-17T23:44:01.177Z,1.80
2024-04-17T23:47:06.318Z,2.10
2024-04-17T23:50:08.353Z,2.17
2024-04-17T23:53:10.503Z,2.22
2024-04-17T23:56:12.464Z,1.85
2024-04-17T23:59:14.571Z,2.30
